Time;durP1;ratioP1;P1;durP2;ratioP2;P2;SDS_P1;SDS_P2;PMS_P1;PMS_P2;Temp;Humidity;BMP_temperature;BMP_pressure;BME280_temperature;BME280_humidity;BME280_pressure;Samples;Min_cycle;Max_cycle;Signal;HPM_P1;HPM_P2
2020/12/27 00:00:50;;;;;;;10.73;5.22;;;2.80;99.90;;;;;;4981560;28;20026;-74
2020/12/27 00:03:16;;;;;;;8.25;5.07;;;2.80;99.90;;;;;;4981973;28;20034;-73
2020/12/27 00:05:44;;;;;;;9.43;5.90;;;2.80;99.90;;;;;;4996023;28;20095;-73
2020/12/27 00:08:10;;;;;;;13.13;6.82;;;2.70;99.90;;;;;;4981926;28;20038;-71
2020/12/27 00:10:35;;;;;;;10.25;5.75;;;2.70;99.90;;;;;;4981081;28;20556;-72
2020/12/27 00:13:01;;;;;;;13.43;6.60;;;2.60;99.90;;;;;;4981737;28;20034;-72
2020/12/27 00:15:27;;;;;;;14.50;6.53;;;2.60;99.90;;;;;;4981737;28;20088;-71
2020/12/27 00:17:53;;;;;;;12.07;5.80;;;2.60;99.90;;;;;;4980824;28;20046;-72
2020/12/27 00:20:18;;;;;;;11.27;5.72;;;2.50;99.90;;;;;;4976827;28;20057;-72
2020/12/27 00:22:44;;;;;;;13.40;6.57;;;2.50;99.90;;;;;;4981002;28;20128;-72
2020/12/27 00:25:10;;;;;;;11.40;6.30;;;2.50;99.90;;;;;;4980749;28;20117;-72
2020/12/27 00:27:36;;;;;;;10.77;5.57;;;2.40;99.90;;;;;;4979148;28;20487;-71
2020/12/27 00:30:03;;;;;;;12.48;5.82;;;2.40;99.90;;;;;;4981293;28;20042;-71
2020/12/27 00:32:29;;;;;;;12.50;5.88;;;2.40;99.90;;;;;;4980510;28;20454;-72
2020/12/27 00:34:56;;;;;;;11.32;5.63;;;2.40;99.90;;;;;;4980794;28;20129;-72
2020/12/27 00:37:22;;;;;;;11.18;5.57;;;2.40;99.90;;;;;;4980988;28;20042;-71
2020/12/27 00:39:49;;;;;;;10.48;5.53;;;2.50;99.90;;;;;;4980716;28;20042;-71
2020/12/27 00:42:15;;;;;;;9.68;5.40;;;2.40;99.90;;;;;;4980799;28;20501;-72
2020/12/27 00:44:40;;;;;;;11.05;5.95;;;2.40;99.90;;;;;;4979112;28;20027;-72
2020/12/27 00:47:06;;;;;;;12.38;6.07;;;2.50;99.90;;;;;;4980171;28;20109;-71
2020/12/27 00:49:32;;;;;;;11.50;6.57;;;2.50;99.90;;;;;;4977898;28;20527;-71
2020/12/27 00:51:57;;;;;;;10.50;6.28;;;2.50;99.90;;;;;;5006354;28;20022;-71
2020/12/27 00:54:23;;;;;;;12.27;6.72;;;2.50;99.90;;;;;;4982862;28;20027;-71
2020/12/27 00:56:50;;;;;;;13.57;7.60;;;2.50;99.90;;;;;;4980480;28;20491;-71
2020/12/27 00:59:18;;;;;;;13.77;7.20;;;2.40;99.90;;;;;;5005489;28;20042;-73
2020/12/27 01:01:44;;;;;;;12.75;7.20;;;2.40;99.90;;;;;;4978519;28;20026;-72
2020/12/27 01:04:35;;;;;;;14.60;7.57;;;2.40;99.90;;;;;;4980258;28;20117;-71
2020/12/27 01:07:01;;;;;;;13.65;7.90;;;2.40;99.90;;;;;;4978387;28;20037;-72
2020/12/27 01:09:26;;;;;;;11.40;7.05;;;2.40;99.90;;;;;;4974503;28;20062;-74
2020/12/27 01:11:52;;;;;;;13.32;7.00;;;2.40;99.90;;;;;;4978194;28;20038;-71
2020/12/27 01:14:19;;;;;;;13.88;7.45;;;2.40;99.90;;;;;;4975357;28;20117;-74
2020/12/27 01:16:50;;;;;;;12.82;6.85;;;2.40;99.90;;;;;;4976532;28;20041;-75
2020/12/27 01:19:20;;;;;;;13.60;7.22;;;2.40;99.90;;;;;;4979079;28;20038;-74
2020/12/27 01:21:47;;;;;;;13.05;7.18;;;2.30;99.90;;;;;;4962674;28;20197;-74
2020/12/27 01:24:17;;;;;;;11.18;6.50;;;2.30;99.90;;;;;;4973704;28;20487;-73
2020/12/27 01:26:43;;;;;;;13.32;6.10;;;2.30;99.90;;;;;;4979321;28;20026;-71
2020/12/27 01:29:09;;;;;;;11.45;6.22;;;2.30;99.90;;;;;;4975345;28;20022;-71
2020/12/27 01:31:42;;;;;;;11.15;5.75;;;2.40;99.90;;;;;;4977446;28;20066;-71
2020/12/27 01:34:22;;;;;;;12.25;6.10;;;2.40;99.90;;;;;;4975458;28;20153;-71
2020/12/27 01:36:48;;;;;;;9.80;5.35;;;2.30;99.90;;;;;;4980442;28;20052;-71
2020/12/27 01:39:19;;;;;;;11.68;5.97;;;2.30;99.90;;;;;;4974848;28;20034;-73
2020/12/27 01:41:51;;;;;;;11.13;6.28;;;2.30;99.90;;;;;;4977565;28;20034;-71
2020/12/27 01:44:23;;;;;;;13.35;5.65;;;2.30;99.90;;;;;;4975147;28;20042;-70
2020/12/27 01:46:52;;;;;;;10.77;5.60;;;2.30;99.90;;;;;;4976722;28;20022;-70
2020/12/27 01:49:29;;;;;;;10.40;5.78;;;2.30;99.90;;;;;;4976030;28;20042;-72
2020/12/27 01:51:55;;;;;;;10.02;5.35;;;2.30;99.90;;;;;;4980822;28;20030;-73
2020/12/27 01:54:41;;;;;;;10.15;5.80;;;2.30;99.90;;;;;;4979311;28;20073;-73
2020/12/27 01:57:16;;;;;;;7.60;5.00;;;2.30;99.90;;;;;;4974540;28;20781;-70
2020/12/27 01:59:52;;;;;;;10.57;5.25;;;2.30;99.90;;;;;;4976880;28;20153;-71
2020/12/27 02:02:36;;;;;;;12.10;5.82;;;2.30;99.90;;;;;;4978661;28;20422;-71
2020/12/27 02:05:06;;;;;;;11.35;6.32;;;2.30;99.90;;;;;;4977621;28;20041;-74
2020/12/27 02:07:32;;;;;;;9.98;5.72;;;2.30;99.90;;;;;;4977488;28;20022;-74
2020/12/27 02:10:05;;;;;;;12.82;6.15;;;2.30;99.90;;;;;;4972821;28;20047;-72
2020/12/27 02:12:33;;;;;;;9.75;5.50;;;2.30;99.90;;;;;;4977031;28;20041;-71
2020/12/27 02:14:59;;;;;;;11.30;5.80;;;2.30;99.90;;;;;;4975180;28;20027;-71
2020/12/27 02:17:37;;;;;;;11.52;6.57;;;2.30;99.90;;;;;;5000755;28;20398;-72
2020/12/27 02:20:14;;;;;;;11.57;6.03;;;2.30;99.90;;;;;;4982992;28;20026;-71
2020/12/27 02:22:59;;;;;;;12.48;6.57;;;2.30;99.90;;;;;;5002607;28;20035;-73
2020/12/27 02:25:42;;;;;;;15.80;7.25;;;2.20;99.90;;;;;;4980670;28;20509;-74
2020/12/27 02:28:31;;;;;;;11.88;6.30;;;2.20;99.90;;;;;;4982122;28;20085;-74
2020/12/27 02:30:59;;;;;;;11.68;6.45;;;2.20;99.90;;;;;;4976405;28;20866;-73
2020/12/27 02:33:27;;;;;;;11.68;6.05;;;2.10;99.90;;;;;;4979088;28;20062;-74
2020/12/27 02:35:53;;;;;;;11.98;6.13;;;2.10;99.90;;;;;;4980686;28;20050;-71
2020/12/27 02:38:22;;;;;;;14.55;6.70;;;2.10;99.90;;;;;;4968506;28;20121;-71
2020/12/27 02:40:48;;;;;;;10.95;6.45;;;2.10;99.90;;;;;;4981240;28;20033;-70
2020/12/27 02:43:22;;;;;;;11.48;6.20;;;2.10;99.90;;;;;;4976816;28;20039;-71
2020/12/27 02:45:51;;;;;;;10.65;6.25;;;2.00;99.90;;;;;;4979656;28;20038;-71
2020/12/27 02:48:36;;;;;;;11.40;6.05;;;2.00;99.90;;;;;;4980759;28;20767;-71
2020/12/27 02:51:06;;;;;;;10.05;6.20;;;2.00;99.90;;;;;;5001003;28;20082;-70
2020/12/27 02:53:34;;;;;;;12.45;6.53;;;2.00;99.90;;;;;;4980477;28;20088;-71
2020/12/27 02:56:00;;;;;;;9.52;5.60;;;2.00;99.90;;;;;;4980002;28;20074;-71
2020/12/27 02:58:25;;;;;;;11.07;5.90;;;2.10;99.90;;;;;;4978333;28;20054;-73
2020/12/27 03:00:55;;;;;;;9.27;5.50;;;2.00;99.90;;;;;;4980737;28;20033;-72
2020/12/27 03:03:58;;;;;;;10.13;5.28;;;2.00;99.90;;;;;;4975035;28;20117;-71
2020/12/27 03:06:29;;;;;;;10.73;5.13;;;1.90;99.90;;;;;;4998173;28;20043;-72
2020/12/27 03:09:00;;;;;;;13.02;5.70;;;1.80;99.90;;;;;;4967976;28;20050;-71
2020/12/27 03:11:58;;;;;;;9.63;5.60;;;1.90;99.90;;;;;;4963703;28;20092;-72
2020/12/27 03:14:24;;;;;;;10.60;5.03;;;1.90;99.90;;;;;;4981370;28;20117;-71
2020/12/27 03:17:12;;;;;;;10.50;4.80;;;2.00;99.90;;;;;;4977292;28;20072;-72
2020/12/27 03:20:04;;;;;;;10.00;4.30;;;2.00;99.90;;;;;;4974460;28;20046;-72
2020/12/27 03:22:43;;;;;;;9.15;4.70;;;2.00;99.90;;;;;;4965964;28;20122;-71
2020/12/27 03:25:19;;;;;;;8.68;4.03;;;2.00;99.90;;;;;;4975665;28;20042;-71
2020/12/27 03:27:45;;;;;;;9.63;4.32;;;2.00;99.90;;;;;;4980462;28;20501;-72
2020/12/27 03:30:11;;;;;;;10.10;4.10;;;2.00;99.90;;;;;;4999980;28;20037;-72
2020/12/27 03:32:40;;;;;;;10.18;5.03;;;2.00;99.90;;;;;;4979133;28;20109;-73
2020/12/27 03:35:06;;;;;;;10.05;4.38;;;2.00;99.90;;;;;;4981498;28;20049;-75
2020/12/27 03:37:35;;;;;;;7.40;4.07;;;2.00;99.90;;;;;;4978204;28;20038;-74
2020/12/27 03:40:21;;;;;;;9.13;3.90;;;2.00;99.90;;;;;;4982016;28;20070;-74
2020/12/27 03:43:07;;;;;;;6.05;3.55;;;2.00;99.90;;;;;;4975104;28;20155;-74
2020/12/27 03:45:33;;;;;;;7.78;4.00;;;1.90;99.90;;;;;;4976694;28;20081;-74
2020/12/27 03:48:34;;;;;;;8.52;4.60;;;2.00;99.90;;;;;;4971577;28;20690;-74
2020/12/27 03:51:11;;;;;;;5.60;3.42;;;2.00;99.90;;;;;;4999992;28;20415;-74
2020/12/27 03:53:37;;;;;;;5.75;3.58;;;1.90;99.90;;;;;;4978287;28;20043;-73
2020/12/27 03:56:32;;;;;;;7.37;4.13;;;1.90;99.90;;;;;;4981847;28;20538;-74
2020/12/27 03:59:20;;;;;;;11.27;3.90;;;1.90;99.90;;;;;;4974167;28;20296;-71
2020/12/27 04:01:52;;;;;;;11.02;4.18;;;1.90;99.90;;;;;;4983906;28;20030;-71
2020/12/27 04:04:18;;;;;;;6.80;4.20;;;1.90;99.90;;;;;;4976248;28;20402;-72
2020/12/27 04:06:43;;;;;;;8.48;4.15;;;1.90;99.90;;;;;;4979750;28;20122;-71
2020/12/27 04:09:22;;;;;;;9.00;4.38;;;1.90;99.90;;;;;;4976514;28;20043;-71
2020/12/27 04:11:48;;;;;;;11.27;4.10;;;1.90;99.90;;;;;;4978896;28;20555;-74
2020/12/27 04:14:15;;;;;;;8.18;4.10;;;1.80;99.90;;;;;;4981295;28;20544;-73
2020/12/27 04:16:41;;;;;;;7.90;4.30;;;1.80;99.90;;;;;;4963299;28;20034;-73
2020/12/27 04:19:07;;;;;;;9.90;4.47;;;1.80;99.90;;;;;;5000119;28;20035;-73
2020/12/27 04:21:53;;;;;;;7.57;4.10;;;1.80;99.90;;;;;;4974435;28;20633;-74
2020/12/27 04:24:45;;;;;;;6.75;4.00;;;1.70;99.90;;;;;;4980298;28;20121;-74
2020/12/27 04:27:12;;;;;;;7.95;3.80;;;1.80;99.90;;;;;;4998346;28;21031;-73
2020/12/27 04:29:38;;;;;;;8.52;4.28;;;1.70;99.90;;;;;;4977967;28;20430;-75
2020/12/27 04:32:05;;;;;;;10.95;4.30;;;1.70;99.90;;;;;;4976412;28;20034;-73
2020/12/27 04:34:49;;;;;;;9.27;3.90;;;1.70;99.90;;;;;;4980169;28;20085;-73
2020/12/27 04:37:15;;;;;;;11.95;4.55;;;1.60;99.90;;;;;;4975776;28;20145;-73
2020/12/27 04:39:50;;;;;;;12.65;4.72;;;1.60;99.90;;;;;;4978983;28;20026;-74
2020/12/27 04:42:16;;;;;;;10.07;4.57;;;1.60;99.90;;;;;;4976293;28;20054;-71
2020/12/27 04:44:55;;;;;;;8.35;4.55;;;1.60;99.90;;;;;;4979800;28;20894;-75
2020/12/27 04:47:29;;;;;;;11.13;5.47;;;1.60;99.90;;;;;;4996927;28;20037;-74
2020/12/27 04:50:34;;;;;;;12.80;5.15;;;1.50;99.90;;;;;;4958342;28;20089;-73
2020/12/27 04:53:00;;;;;;;11.93;5.20;;;1.50;99.90;;;;;;4961458;28;20036;-74
2020/12/27 04:55:30;;;;;;;10.15;5.13;;;1.50;99.90;;;;;;4979644;28;20039;-71
2020/12/27 04:58:18;;;;;;;11.70;5.35;;;1.40;99.90;;;;;;4976452;28;20114;-73
2020/12/27 05:01:13;;;;;;;9.73;4.97;;;1.40;99.90;;;;;;4972037;28;20066;-71
2020/12/27 05:04:02;;;;;;;11.90;5.78;;;1.40;99.90;;;;;;4994211;28;20141;-73
2020/12/27 05:06:37;;;;;;;10.95;5.60;;;1.40;99.90;;;;;;4985685;28;20054;-72
2020/12/27 05:09:06;;;;;;;12.05;5.57;;;1.50;99.90;;;;;;4964035;28;20062;-72
2020/12/27 05:11:34;;;;;;;15.48;6.07;;;1.40;99.90;;;;;;4976199;28;20044;-71
2020/12/27 05:14:09;;;;;;;11.43;5.55;;;1.40;99.90;;;;;;4975611;28;20042;-74
2020/12/27 05:16:42;;;;;;;11.25;5.88;;;1.50;99.90;;;;;;4978198;28;20105;-72
2020/12/27 05:19:09;;;;;;;13.55;5.80;;;1.40;99.90;;;;;;4975317;28;20073;-73
2020/12/27 05:21:39;;;;;;;11.43;5.82;;;1.40;99.90;;;;;;4977135;28;20084;-76
2020/12/27 05:24:38;;;;;;;11.32;6.05;;;1.40;99.90;;;;;;4976402;28;20027;-73
2020/12/27 05:27:23;;;;;;;13.75;6.38;;;1.40;99.90;;;;;;4977750;28;20034;-72
2020/12/27 05:30:14;;;;;;;10.95;5.55;;;1.40;99.90;;;;;;4970841;28;20186;-72
2020/12/27 05:33:14;;;;;;;11.90;6.00;;;1.30;99.90;;;;;;4974239;28;20042;-72
2020/12/27 05:36:01;;;;;;;11.18;5.90;;;1.40;99.90;;;;;;4971464;28;20085;-74
2020/12/27 05:38:30;;;;;;;13.00;5.93;;;1.40;99.90;;;;;;4978291;28;20126;-76
2020/12/27 05:41:31;;;;;;;11.07;5.68;;;1.40;99.90;;;;;;4976126;28;20041;-75
2020/12/27 05:44:10;;;;;;;14.60;6.35;;;1.30;99.90;;;;;;4970696;28;20034;-73
2020/12/27 05:46:36;;;;;;;10.68;5.97;;;1.40;99.90;;;;;;4976605;28;20037;-73
2020/12/27 05:49:03;;;;;;;10.70;5.45;;;1.40;99.90;;;;;;4977423;28;20039;-74
2020/12/27 05:51:38;;;;;;;10.63;5.22;;;1.30;99.90;;;;;;4984254;28;20042;-74
2020/12/27 05:54:11;;;;;;;13.82;6.28;;;1.30;99.90;;;;;;4972770;28;20137;-73
2020/12/27 05:56:55;;;;;;;11.63;6.63;;;1.30;99.90;;;;;;4974971;28;20406;-75
2020/12/27 05:59:29;;;;;;;10.70;5.72;;;1.30;99.90;;;;;;4974558;28;20038;-75
2020/12/27 06:01:58;;;;;;;11.77;5.20;;;1.30;99.90;;;;;;4963249;28;20026;-73
2020/12/27 06:04:31;;;;;;;12.70;6.00;;;1.30;99.90;;;;;;4974076;28;20034;-78
2020/12/27 06:06:57;;;;;;;13.50;5.57;;;1.30;99.90;;;;;;4979168;28;20022;-73
2020/12/27 06:09:32;;;;;;;11.82;6.03;;;1.30;99.90;;;;;;4995533;28;20776;-74
2020/12/27 06:12:02;;;;;;;10.60;5.20;;;1.30;99.90;;;;;;4971334;28;20129;-72
2020/12/27 06:14:39;;;;;;;16.33;6.03;;;1.30;99.90;;;;;;4975421;28;20165;-74
2020/12/27 06:17:48;;;;;;;14.32;5.22;;;1.30;99.90;;;;;;4951315;28;20042;-74
2020/12/27 06:20:36;;;;;;;12.02;5.72;;;1.20;99.90;;;;;;4969048;28;20042;-75
2020/12/27 06:23:05;;;;;;;12.27;5.93;;;1.30;99.90;;;;;;4975274;28;20035;-73
2020/12/27 06:25:45;;;;;;;15.35;5.57;;;1.30;99.90;;;;;;4969605;28;20038;-73
2020/12/27 06:28:11;;;;;;;11.55;5.20;;;1.20;99.90;;;;;;5002200;28;20803;-75
2020/12/27 06:30:56;;;;;;;13.73;5.47;;;1.20;99.90;;;;;;4976882;28;20030;-73
2020/12/27 06:33:42;;;;;;;9.93;5.60;;;1.20;99.90;;;;;;4965314;28;20561;-72
2020/12/27 06:36:33;;;;;;;11.20;5.30;;;1.10;99.90;;;;;;4973495;28;20789;-75
2020/12/27 06:39:29;;;;;;;19.27;8.27;;;1.20;99.90;;;;;;4999615;28;20043;-74
2020/12/27 06:42:07;;;;;;;11.10;5.60;;;1.20;99.90;;;;;;4968017;28;20038;-71
2020/12/27 06:44:48;;;;;;;11.10;5.85;;;1.20;99.90;;;;;;4999226;28;20108;-70
2020/12/27 06:47:49;;;;;;;11.55;5.60;;;1.20;99.90;;;;;;4972223;28;20474;-72
2020/12/27 06:50:24;;;;;;;9.90;5.45;;;1.20;99.90;;;;;;4979875;28;20108;-71
2020/12/27 06:52:58;;;;;;;11.93;5.47;;;1.20;99.90;;;;;;4967489;28;20051;-75
2020/12/27 06:56:02;;;;;;;9.50;5.82;;;1.20;99.90;;;;;;4960205;28;20053;-72
2020/12/27 06:59:01;;;;;;;12.23;5.65;;;1.20;99.90;;;;;;4992324;28;20054;-75
2020/12/27 07:01:28;;;;;;;10.38;4.78;;;1.30;99.90;;;;;;4995778;28;20031;-73
2020/12/27 07:04:10;;;;;;;9.65;5.13;;;1.30;99.90;;;;;;4980603;28;20057;-71
2020/12/27 07:06:39;;;;;;;12.07;5.32;;;1.30;99.90;;;;;;4981770;28;20061;-73
2020/12/27 07:09:05;;;;;;;11.02;4.82;;;1.30;99.90;;;;;;4976837;28;20450;-74
2020/12/27 07:11:32;;;;;;;8.68;4.80;;;1.30;99.90;;;;;;4974427;28;20053;-73
2020/12/27 07:13:58;;;;;;;11.07;5.50;;;1.30;99.90;;;;;;4993303;28;20062;-72
2020/12/27 07:17:04;;;;;;;11.20;5.47;;;1.30;99.90;;;;;;4975137;28;20026;-75
2020/12/27 07:19:29;;;;;;;9.63;5.35;;;1.30;99.90;;;;;;4961187;28;20058;-73
2020/12/27 07:22:04;;;;;;;9.45;4.57;;;1.20;99.90;;;;;;4979254;28;20027;-71
2020/12/27 07:24:33;;;;;;;6.60;3.73;;;1.20;99.90;;;;;;4974334;28;20774;-71
2020/12/27 07:27:02;;;;;;;13.30;5.28;;;1.30;99.90;;;;;;4975343;28;20335;-72
2020/12/27 07:29:29;;;;;;;11.73;5.10;;;1.30;99.90;;;;;;4975413;28;20812;-72
2020/12/27 07:31:55;;;;;;;13.60;5.03;;;1.30;99.90;;;;;;4969322;28;20022;-73
2020/12/27 07:34:24;;;;;;;11.82;4.70;;;1.30;99.90;;;;;;4981609;28;20398;-73
2020/12/27 07:36:57;;;;;;;13.68;4.95;;;1.40;99.90;;;;;;4979277;28;20031;-70
2020/12/27 07:39:48;;;;;;;12.25;4.60;;;1.40;99.90;;;;;;4975862;28;20084;-71
2020/12/27 07:42:28;;;;;;;12.27;5.07;;;1.40;99.90;;;;;;4981359;28;20030;-70
2020/12/27 07:44:56;;;;;;;8.05;3.55;;;1.40;99.90;;;;;;5006355;28;20026;-71
2020/12/27 07:47:22;;;;;;;11.23;3.72;;;1.40;99.90;;;;;;4974589;28;20365;-70
2020/12/27 07:50:14;;;;;;;9.82;3.78;;;1.40;99.90;;;;;;4978335;28;20027;-70
2020/12/27 07:52:41;;;;;;;5.95;3.22;;;1.40;99.90;;;;;;4974198;28;20108;-70
2020/12/27 07:55:07;;;;;;;5.85;3.60;;;1.40;99.90;;;;;;4981330;28;20125;-73
2020/12/27 07:57:32;;;;;;;8.30;3.38;;;1.40;99.90;;;;;;4973169;28;20047;-70
2020/12/27 08:00:07;;;;;;;6.32;3.10;;;1.50;99.90;;;;;;4983601;28;20042;-72
2020/12/27 08:02:44;;;;;;;9.48;2.97;;;1.50;99.90;;;;;;4974760;28;20034;-75
2020/12/27 08:05:13;;;;;;;5.22;2.78;;;1.60;99.90;;;;;;4975442;28;20034;-74
2020/12/27 08:07:39;;;;;;;6.25;3.05;;;1.70;99.90;;;;;;4981689;28;20494;-70
2020/12/27 08:10:26;;;;;;;4.57;2.53;;;1.70;99.90;;;;;;4982362;28;20030;-72
2020/12/27 08:13:02;;;;;;;4.80;2.47;;;1.70;99.90;;;;;;4974198;28;20034;-71
2020/12/27 08:15:30;;;;;;;15.55;5.05;;;1.70;99.90;;;;;;4974913;28;20045;-71
2020/12/27 08:18:00;;;;;;;5.35;2.50;;;1.80;99.90;;;;;;4982625;28;20534;-73
2020/12/27 08:20:28;;;;;;;5.20;2.65;;;1.70;99.90;;;;;;4981985;28;20045;-71
2020/12/27 08:23:01;;;;;;;7.28;2.42;;;1.80;99.90;;;;;;4981456;28;20046;-71
2020/12/27 08:25:28;;;;;;;6.50;2.65;;;1.80;99.90;;;;;;4980007;28;20034;-74
2020/12/27 08:27:58;;;;;;;6.55;2.10;;;1.80;99.90;;;;;;4980435;28;20414;-71
2020/12/27 08:30:25;;;;;;;3.78;2.20;;;1.90;99.90;;;;;;4968064;28;20039;-72
2020/12/27 08:33:10;;;;;;;6.00;2.28;;;1.90;99.90;;;;;;4980905;28;20034;-70
2020/12/27 08:35:39;;;;;;;10.57;2.43;;;1.90;99.90;;;;;;4979437;28;20502;-72
2020/12/27 08:38:14;;;;;;;6.50;2.22;;;2.00;99.90;;;;;;4971213;28;20321;-71
2020/12/27 08:40:43;;;;;;;3.58;2.20;;;2.00;99.90;;;;;;4978619;28;20030;-70
2020/12/27 08:43:18;;;;;;;7.82;2.05;;;2.10;99.90;;;;;;4961498;28;20027;-71
2020/12/27 08:45:49;;;;;;;4.93;2.00;;;2.10;99.90;;;;;;4973941;28;20038;-72
2020/12/27 08:48:43;;;;;;;5.28;2.40;;;2.00;99.90;;;;;;4977001;28;20043;-72
2020/12/27 08:51:11;;;;;;;4.10;2.20;;;2.10;99.90;;;;;;4976289;28;20050;-73
2020/12/27 08:53:43;;;;;;;3.72;2.10;;;2.10;99.90;;;;;;4974133;28;20050;-71
2020/12/27 08:56:11;;;;;;;6.55;2.20;;;2.10;99.90;;;;;;4973046;28;20793;-71
2020/12/27 08:58:36;;;;;;;10.68;3.83;;;2.00;99.90;;;;;;4981481;28;20788;-71
2020/12/27 09:01:20;;;;;;;7.22;2.25;;;2.00;99.90;;;;;;4975646;28;20025;-71
2020/12/27 09:03:45;;;;;;;4.05;1.88;;;2.10;99.90;;;;;;4974075;28;20086;-71
2020/12/27 09:06:12;;;;;;;5.07;1.92;;;2.10;99.90;;;;;;4980675;28;20475;-71
2020/12/27 09:08:38;;;;;;;7.05;1.90;;;2.10;99.90;;;;;;4973569;28;20045;-72
2020/12/27 09:11:03;;;;;;;3.70;1.98;;;2.10;99.90;;;;;;4964457;28;20035;-71
2020/12/27 09:13:39;;;;;;;4.32;2.22;;;2.10;99.90;;;;;;4978120;28;20141;-72
2020/12/27 09:16:04;;;;;;;;;;;2.10;99.90;;;;;;4975252;28;20050;-71
2020/12/27 09:18:32;;;;;;;5.35;1.88;;;2.10;99.90;;;;;;4967410;28;19926;-71
2020/12/27 09:20:58;;;;;;;3.58;2.30;;;2.20;99.90;;;;;;4974209;28;20030;-71
2020/12/27 09:23:25;;;;;;;3.88;2.20;;;2.20;99.90;;;;;;4972063;28;20033;-71
2020/12/27 09:26:06;;;;;;;5.95;2.30;;;2.20;99.90;;;;;;4972505;28;20042;-73
2020/12/27 09:28:33;;;;;;;5.20;2.33;;;2.20;99.50;;;;;;4978526;28;20068;-72
2020/12/27 09:31:00;;;;;;;4.85;2.42;;;2.20;99.90;;;;;;4980276;28;20029;-71
2020/12/27 09:33:27;;;;;;;4.75;2.58;;;2.20;99.80;;;;;;4978453;28;20085;-71
2020/12/27 09:36:00;;;;;;;5.32;2.30;;;2.30;99.90;;;;;;4976069;28;20049;-72
2020/12/27 09:38:28;;;;;;;4.05;2.33;;;2.40;99.40;;;;;;4971444;28;20042;-72
2020/12/27 09:41:04;;;;;;;6.13;2.50;;;2.40;99.60;;;;;;4979673;28;20065;-71
2020/12/27 09:43:30;;;;;;;5.78;2.28;;;2.30;99.70;;;;;;4980124;28;20076;-70
2020/12/27 09:45:56;;;;;;;5.57;2.92;;;2.40;99.60;;;;;;4979037;28;20026;-74
2020/12/27 09:48:30;;;;;;;6.82;2.60;;;2.30;99.50;;;;;;4979771;28;20046;-71
2020/12/27 09:50:56;;;;;;;4.15;2.50;;;2.20;99.60;;;;;;4979360;28;20042;-73
2020/12/27 09:53:21;;;;;;;6.43;2.60;;;2.20;99.90;;;;;;4969650;28;20053;-71
2020/12/27 09:55:47;;;;;;;4.93;2.40;;;2.20;99.90;;;;;;4978130;28;20153;-72
2020/12/27 09:58:12;;;;;;;4.22;2.60;;;2.20;99.80;;;;;;4979224;28;20030;-72
2020/12/27 10:00:38;;;;;;;6.32;2.45;;;2.20;99.90;;;;;;4972515;28;20527;-73
2020/12/27 10:03:04;;;;;;;7.93;2.92;;;2.20;99.90;;;;;;4972152;28;20030;-71
2020/12/27 10:05:30;;;;;;;6.18;2.63;;;2.30;99.90;;;;;;5008384;28;20418;-71
2020/12/27 10:07:55;;;;;;;5.65;2.50;;;2.20;99.90;;;;;;4978929;28;20073;-74
2020/12/27 10:10:21;;;;;;;4.90;2.40;;;2.20;99.90;;;;;;4979461;28;20029;-72
2020/12/27 10:12:47;;;;;;;6.50;2.85;;;2.20;99.90;;;;;;5000859;28;20038;-72
2020/12/27 10:15:12;;;;;;;5.78;2.83;;;2.20;99.90;;;;;;4974869;28;20026;-74
2020/12/27 10:17:38;;;;;;;4.30;2.42;;;2.20;99.90;;;;;;4964773;28;20542;-73
2020/12/27 10:20:10;;;;;;;5.40;2.70;;;2.20;99.90;;;;;;4969384;28;20913;-72
2020/12/27 10:22:36;;;;;;;4.13;2.50;;;2.20;99.90;;;;;;4973451;28;20510;-72
2020/12/27 10:25:02;;;;;;;3.63;2.30;;;2.10;99.90;;;;;;4967558;28;20041;-72
2020/12/27 10:27:32;;;;;;;8.35;2.50;;;2.10;99.90;;;;;;4970356;28;20035;-74
2020/12/27 10:30:02;;;;;;;4.50;2.50;;;2.00;99.90;;;;;;4971164;28;20038;-71
2020/12/27 10:32:27;;;;;;;4.43;2.15;;;2.00;99.90;;;;;;4965526;28;20049;-72
2020/12/27 10:34:53;;;;;;;4.50;2.45;;;2.10;99.90;;;;;;4974529;28;20816;-71
2020/12/27 10:37:19;;;;;;;4.15;2.30;;;2.10;99.90;;;;;;4975913;28;20041;-73
2020/12/27 10:39:44;;;;;;;4.18;2.50;;;2.10;99.80;;;;;;4982133;28;20031;-71
2020/12/27 10:42:10;;;;;;;4.95;2.25;;;2.00;99.90;;;;;;4975512;28;20035;-68
2020/12/27 10:44:36;;;;;;;6.20;2.40;;;2.00;99.90;;;;;;4980466;28;20030;-71
2020/12/27 10:47:01;;;;;;;10.73;4.13;;;2.10;99.90;;;;;;4978363;28;20034;-73
2020/12/27 10:49:27;;;;;;;4.97;2.53;;;2.10;99.90;;;;;;4975907;28;20047;-76
2020/12/27 10:51:53;;;;;;;5.15;2.67;;;2.00;99.90;;;;;;4976801;28;20038;-70
2020/12/27 10:54:18;;;;;;;6.65;2.90;;;2.00;99.90;;;;;;4981052;28;20042;-70
2020/12/27 10:56:45;;;;;;;4.65;2.58;;;2.10;99.90;;;;;;4974128;28;20046;-70
2020/12/27 10:59:13;;;;;;;4.57;2.70;;;2.10;99.90;;;;;;4972382;28;20552;-70
2020/12/27 11:01:47;;;;;;;3.40;2.30;;;2.10;99.90;;;;;;4978372;28;20038;-70
2020/12/27 11:04:13;;;;;;;3.38;2.35;;;2.10;99.90;;;;;;4976934;28;20069;-72
2020/12/27 11:06:39;;;;;;;7.57;3.05;;;2.10;99.80;;;;;;4981951;28;20541;-70
2020/12/27 11:09:05;;;;;;;4.45;2.42;;;2.00;99.80;;;;;;4978602;28;20039;-71
2020/12/27 11:11:31;;;;;;;6.40;2.58;;;2.10;99.90;;;;;;4974626;28;20444;-71
2020/12/27 11:13:56;;;;;;;4.60;2.67;;;2.10;99.50;;;;;;4976313;28;20026;-70
2020/12/27 11:16:22;;;;;;;4.80;2.22;;;2.10;99.50;;;;;;4976994;28;20498;-71
2020/12/27 11:18:47;;;;;;;5.07;2.40;;;2.10;99.70;;;;;;4982090;28;20113;-71
2020/12/27 11:21:13;;;;;;;21.75;6.15;;;2.10;99.70;;;;;;4982841;28;20041;-71
2020/12/27 11:23:39;;;;;;;4.18;2.60;;;2.10;99.60;;;;;;4967054;28;20037;-71
2020/12/27 11:26:05;;;;;;;8.07;2.60;;;2.10;99.30;;;;;;4975388;28;20775;-71
2020/12/27 11:28:31;;;;;;;5.75;3.15;;;2.10;99.10;;;;;;4975918;28;20096;-71
2020/12/27 11:30:57;;;;;;;7.45;3.33;;;2.20;99.00;;;;;;4981976;28;20041;-70
2020/12/27 11:33:23;;;;;;;5.72;2.58;;;2.10;99.20;;;;;;4976055;28;20035;-72
2020/12/27 11:35:48;;;;;;;4.63;2.40;;;2.10;99.00;;;;;;4979104;28;20038;-71
2020/12/27 11:38:14;;;;;;;6.93;2.88;;;2.10;98.90;;;;;;4964121;28;20034;-71
2020/12/27 11:40:40;;;;;;;5.07;2.25;;;2.10;98.60;;;;;;4978844;28;20092;-74
2020/12/27 11:43:05;;;;;;;5.05;2.30;;;2.20;98.00;;;;;;4980822;28;20486;-73
2020/12/27 11:45:31;;;;;;;5.25;2.60;;;2.20;98.00;;;;;;4978174;28;20042;-71
2020/12/27 11:47:57;;;;;;;3.88;2.38;;;2.20;98.50;;;;;;4973244;28;20041;-71
2020/12/27 11:50:22;;;;;;;4.65;2.60;;;2.20;98.10;;;;;;4971941;28;20034;-71
2020/12/27 11:52:48;;;;;;;6.00;2.58;;;2.20;97.60;;;;;;4978817;28;20762;-72
2020/12/27 11:55:14;;;;;;;4.43;2.45;;;2.30;97.40;;;;;;4970359;28;20041;-73
2020/12/27 11:57:40;;;;;;;4.32;2.22;;;2.30;97.40;;;;;;4981526;28;20026;-70
2020/12/27 12:00:06;;;;;;;4.55;2.55;;;2.30;97.50;;;;;;4975654;28;20042;-71
2020/12/27 12:02:36;;;;;;;7.05;3.78;;;2.30;97.40;;;;;;4975125;28;20044;-74
2020/12/27 12:05:02;;;;;;;4.53;2.10;;;2.30;97.60;;;;;;4979402;28;20026;-71
2020/12/27 12:07:28;;;;;;;3.85;2.00;;;2.30;96.50;;;;;;4973127;28;20034;-73
2020/12/27 12:09:53;;;;;;;8.18;2.08;;;2.40;97.00;;;;;;4978387;28;20042;-71
2020/12/27 12:12:19;;;;;;;3.15;2.05;;;2.40;96.60;;;;;;4969846;28;20042;-72
2020/12/27 12:14:45;;;;;;;4.05;2.28;;;2.40;96.80;;;;;;4979915;28;20030;-71
2020/12/27 12:17:10;;;;;;;4.75;2.25;;;2.40;96.90;;;;;;4970591;28;20070;-71
2020/12/27 12:19:36;;;;;;;2.13;1.60;;;2.40;96.20;;;;;;4972254;28;20031;-71
2020/12/27 12:22:01;;;;;;;2.80;2.03;;;2.40;96.10;;;;;;4981373;28;20475;-71
2020/12/27 12:24:27;;;;;;;3.30;1.77;;;2.50;95.80;;;;;;4979881;28;20026;-72
2020/12/27 12:26:53;;;;;;;3.10;2.17;;;2.50;95.60;;;;;;4981290;28;20030;-72
2020/12/27 12:29:19;;;;;;;4.10;2.58;;;2.50;95.50;;;;;;4967994;28;20045;-72
2020/12/27 12:31:44;;;;;;;3.38;1.95;;;2.50;95.30;;;;;;4992222;28;20043;-72
2020/12/27 12:34:11;;;;;;;4.15;2.00;;;2.50;95.40;;;;;;4975568;28;20143;-71
2020/12/27 12:36:37;;;;;;;6.32;3.00;;;2.50;95.70;;;;;;4977229;28;20053;-75
2020/12/27 12:39:04;;;;;;;4.03;1.98;;;2.50;95.80;;;;;;4996129;28;20035;-72
2020/12/27 12:41:30;;;;;;;4.18;1.75;;;2.50;95.50;;;;;;4975347;28;20044;-70
2020/12/27 12:43:57;;;;;;;4.97;2.00;;;2.40;96.10;;;;;;4975376;28;20546;-70
2020/12/27 12:46:23;;;;;;;2.88;1.98;;;2.40;95.80;;;;;;4975674;28;20042;-71
2020/12/27 12:48:51;;;;;;;2.90;1.77;;;2.40;96.60;;;;;;4981826;28;20038;-71
2020/12/27 12:51:17;;;;;;;2.50;1.90;;;2.40;96.30;;;;;;4981245;28;20049;-71
2020/12/27 12:53:43;;;;;;;3.58;1.77;;;2.40;96.40;;;;;;4980898;28;20190;-71
2020/12/27 12:56:11;;;;;;;4.97;2.33;;;2.40;96.10;;;;;;4974242;28;20436;-72
2020/12/27 12:58:37;;;;;;;3.50;1.80;;;2.40;96.10;;;;;;5003068;28;20042;-70
2020/12/27 13:01:04;;;;;;;2.70;1.80;;;2.40;95.50;;;;;;4972578;28;20115;-70
2020/12/27 13:03:30;;;;;;;2.50;1.70;;;2.50;96.50;;;;;;4979230;28;20101;-73
2020/12/27 13:05:56;;;;;;;3.17;2.08;;;2.40;96.30;;;;;;4983777;28;20113;-71
2020/12/27 13:08:21;;;;;;;2.95;1.83;;;2.40;96.30;;;;;;4972866;28;20081;-70
2020/12/27 13:10:49;;;;;;;3.28;1.70;;;2.40;96.60;;;;;;4974616;28;20062;-70
2020/12/27 13:13:15;;;;;;;2.50;1.85;;;2.40;96.30;;;;;;4977652;28;20041;-71
2020/12/27 13:15:41;;;;;;;4.78;1.88;;;2.30;97.20;;;;;;4980326;28;20033;-70